Time;durP1;ratioP1;P1;durP2;ratioP2;P2;SDS_P1;SDS_P2;PMS_P1;PMS_P2;Temp;Humidity;BMP_temperature;BMP_pressure;BME280_temperature;BME280_humidity;BME280_pressure;Samples;Min_cycle;Max_cycle;Signal;HPM_P1;HPM_P2
2023/12/20 00:00:39;;;;;;;356.47;13.17;;;;;;;22.64;54.06;98986.53;7276398;19;131155;-37
2023/12/20 00:03:05;;;;;;;333.30;11.67;;;;;;;22.65;53.72;98982.91;7278703;19;132134;-37
2023/12/20 00:05:32;;;;;;;290.53;10.43;;;;;;;22.64;54.25;98973.44;7280260;19;131100;-38
2023/12/20 00:07:57;;;;;;;323.85;11.73;;;;;;;22.59;54.18;98983.56;7273231;19;130128;-37
2023/12/20 00:10:22;;;;;;;376.30;13.60;;;;;;;22.59;54.41;98978.34;7276386;19;131033;-38
2023/12/20 00:12:48;;;;;;;352.20;12.85;;;;;;;22.56;54.22;98978.66;7277463;19;130889;-36
2023/12/20 00:15:13;;;;;;;320.80;11.33;;;;;;;22.56;54.39;98970.81;7279354;19;129752;-34
2023/12/20 00:17:38;;;;;;;352.17;12.93;;;;;;;22.58;54.25;98971.44;7277075;19;131961;-38
2023/12/20 00:20:05;;;;;;;419.13;15.07;;;;;;;22.55;54.11;98974.38;7275997;19;130494;-37
2023/12/20 00:22:30;;;;;;;374.52;13.32;;;;;;;22.52;54.57;98962.41;7279447;19;130682;-37
2023/12/20 00:24:56;;;;;;;302.15;10.68;;;;;;;22.53;54.21;98963.25;7278426;19;130520;-37
2023/12/20 00:27:21;;;;;;;305.30;10.90;;;;;;;22.53;54.92;98963.25;7279699;19;130559;-37
2023/12/20 00:29:49;;;;;;;427.50;15.37;;;;;;;22.51;54.49;98958.13;7276893;19;131856;-36
2023/12/20 00:32:14;;;;;;;323.85;11.25;;;;;;;22.47;55.31;98972.53;7278998;19;130837;-36
2023/12/20 00:34:40;;;;;;;302.00;10.52;;;;;;;22.45;54.60;98965.81;7278280;19;129901;-36
2023/12/20 00:37:05;;;;;;;305.75;10.48;;;;;;;22.47;54.65;98969.09;7278369;19;130976;-38
2023/12/20 00:39:32;;;;;;;357.15;12.70;;;;;;;22.47;55.06;98963.84;7277529;19;134471;-37
2023/12/20 00:41:57;;;;;;;;;;;;;;;22.51;56.26;98954.72;7276540;19;131123;-34
2023/12/20 00:44:23;;;;;;;300.63;10.50;;;;;;;22.48;55.02;98965.47;7279202;19;129818;-37
2023/12/20 00:46:48;;;;;;;353.93;12.87;;;;;;;22.32;55.08;98934.84;7277497;19;131594;-38
2023/12/20 00:49:13;;;;;;;337.67;12.40;;;;;;;22.45;54.83;98961.41;7274497;19;130497;-35
2023/12/20 00:51:39;;;;;;;278.37;9.77;;;;;;;22.45;54.98;98956.16;7277063;19;130313;-36
2023/12/20 00:54:04;;;;;;;277.92;9.93;;;;;;;22.44;55.31;98953.72;7276523;19;130482;-37
2023/12/20 00:56:29;;;;;;;317.58;11.32;;;;;;;22.42;54.91;98955.66;7277564;19;130729;-37
2023/12/20 00:58:55;;;;;;;366.50;12.98;;;;;;;22.41;54.74;98954.84;7277367;19;133184;-34
2023/12/20 01:01:21;;;;;;;323.67;11.35;;;;;;;22.40;54.65;98941.91;7276954;19;130914;-38
2023/12/20 01:03:48;;;;;;;343.45;12.23;;;;;;;22.41;55.18;98943.56;7278078;19;130962;-38
2023/12/20 01:06:13;;;;;;;342.40;12.10;;;;;;;22.42;55.00;98937.31;7278097;19;130229;-37
2023/12/20 01:08:38;;;;;;;380.02;14.40;;;;;;;22.25;55.31;98912.06;7276595;19;130659;-37
2023/12/20 01:11:05;;;;;;;287.05;10.20;;;;;;;22.34;54.89;98926.84;7277415;19;131683;-38
2023/12/20 01:13:31;;;;;;;299.23;10.70;;;;;;;22.34;55.38;98918.97;7277859;19;130244;-37
2023/12/20 01:15:56;;;;;;;428.20;15.98;;;;;;;22.34;55.08;98918.97;7275279;19;131205;-37
2023/12/20 01:18:21;;;;;;;291.98;10.48;;;;;;;22.33;54.74;98920.78;7275845;19;130907;-37
2023/12/20 01:20:47;;;;;;;266.65;10.20;;;;;;;22.31;55.27;98916.69;7275084;19;130464;-37
2023/12/20 01:23:12;;;;;;;321.17;11.40;;;;;;;22.31;55.16;98911.44;7277984;19;129559;-34
2023/12/20 01:25:39;;;;;;;394.97;14.13;;;;;;;22.28;54.92;98901.31;7285194;19;130725;-36
2023/12/20 01:28:04;;;;;;;325.10;11.68;;;;;;;22.27;55.49;98904.88;7283654;19;130298;-37
2023/12/20 01:30:29;;;;;;;279.93;9.77;;;;;;;22.27;55.45;98905.72;7283088;19;130153;-37
2023/12/20 01:32:55;;;;;;;298.33;10.77;;;;;;;22.27;55.64;98905.72;7283830;19;130104;-37
2023/12/20 01:35:20;;;;;;;317.20;11.13;;;;;;;22.25;55.48;98905.03;7284257;19;130329;-37
2023/12/20 01:37:45;;;;;;;410.27;15.33;;;;;;;22.24;55.15;98899.97;7281929;19;131412;-38
2023/12/20 01:40:11;;;;;;;300.57;10.57;;;;;;;22.26;55.51;98903.25;7283121;19;131244;-37
2023/12/20 01:42:37;;;;;;;298.43;10.40;;;;;;;22.21;54.74;98895.06;7284477;19;130986;-39
2023/12/20 01:45:02;;;;;;;353.08;12.52;;;;;;;22.25;55.60;98901.59;7284174;19;129917;-37
2023/12/20 01:47:28;;;;;;;381.05;14.50;;;;;;;22.25;54.94;98901.59;7283005;19;130996;-38
2023/12/20 01:49:53;;;;;;;324.47;11.60;;;;;;;22.23;55.26;98893.09;7280699;19;130990;-35
2023/12/20 01:52:20;;;;;;;328.20;11.47;;;;;;;22.12;55.35;98873.28;7283915;19;129880;-37
2023/12/20 01:54:45;;;;;;;400.40;14.30;;;;;;;22.24;55.27;98894.72;7283817;19;129639;-36
2023/12/20 01:57:11;;;;;;;302.90;10.80;;;;;;;22.23;55.41;98893.09;7283070;19;131575;-37
2023/12/20 01:59:39;;;;;;;248.10;8.80;;;;;;;22.22;55.41;98894.91;7283069;19;132114;-39
2023/12/20 02:02:05;;;;;;;325.50;11.43;;;;;;;22.19;55.43;98891.78;7278886;19;130676;-38
2023/12/20 02:04:30;;;;;;;302.90;10.80;;;;;;;22.15;55.53;98890.47;7284009;19;131438;-37
2023/12/20 02:06:57;;;;;;;340.95;12.07;;;;;;;22.23;55.09;98891.28;7282577;19;130941;-38
2023/12/20 02:09:22;;;;;;;320.42;11.18;;;;;;;22.22;54.79;98891.44;7282470;19;129644;-38
2023/12/20 02:11:48;;;;;;;411.63;14.80;;;;;;;22.23;55.48;98890.50;7280484;19;130301;-37
2023/12/20 02:14:13;;;;;;;295.88;10.40;;;;;;;22.23;54.49;98878.19;7282455;19;130250;-38
2023/12/20 02:16:39;;;;;;;322.52;11.45;;;;;;;22.21;55.41;98874.94;7281291;19;133033;-38
2023/12/20 02:19:12;;;;;;;305.57;10.97;;;;;;;22.21;55.84;98874.13;7280576;19;131798;-39
2023/12/20 02:21:37;;;;;;;353.58;12.55;;;;;;;22.19;55.47;98862.97;7279963;19;131718;-37
2023/12/20 02:24:03;;;;;;;328.43;11.70;;;;;;;22.15;55.20;98869.53;7282213;19;131382;-37
2023/12/20 02:26:28;;;;;;;324.87;11.63;;;;;;;22.18;55.28;98864.75;7282955;19;133728;-36
2023/12/20 02:28:54;;;;;;;287.30;9.98;;;;;;;22.20;54.56;98869.84;7281480;19;130694;-37
2023/12/20 02:31:23;;;;;;;376.77;13.23;;;;;;;22.18;55.68;98870.00;7280936;19;130940;-36
2023/12/20 02:33:49;;;;;;;322.50;11.48;;;;;;;22.17;55.13;98862.31;7283120;19;131454;-36
2023/12/20 02:36:14;;;;;;;307.35;10.98;;;;;;;22.16;54.93;98865.91;7278553;19;130689;-37
2023/12/20 02:38:39;;;;;;;354.55;13.32;;;;;;;22.16;55.17;98866.75;7280636;19;131845;-38
2023/12/20 02:41:05;;;;;;;361.17;12.87;;;;;;;21.98;54.91;98838.06;7280526;19;129706;-37
2023/12/20 02:43:30;;;;;;;326.92;11.32;;;;;;;22.13;55.69;98861.00;7283324;19;130198;-34
2023/12/20 02:45:55;;;;;;;348.08;12.18;;;;;;;22.13;55.24;98866.25;7280544;19;130266;-38
2023/12/20 02:48:21;;;;;;;287.93;10.30;;;;;;;22.11;55.56;98868.19;7280330;19;131534;-37
2023/12/20 02:50:48;;;;;;;383.53;13.47;;;;;;;21.94;55.34;98841.16;7279116;19;129638;-37
2023/12/20 02:53:14;;;;;;;303.15;10.68;;;;;;;22.06;56.00;98865.25;7283149;19;130347;-37
2023/12/20 02:55:39;;;;;;;261.52;9.20;;;;;;;22.03;55.42;98866.41;7280900;19;130019;-35
2023/12/20 02:58:04;;;;;;;334.80;11.68;;;;;;;22.01;56.07;98857.06;7278129;19;131281;-37
2023/12/20 03:00:30;;;;;;;352.33;12.38;;;;;;;21.94;56.05;98857.69;7280085;19;129637;-35
2023/12/20 03:02:55;;;;;;;360.40;12.98;;;;;;;21.96;55.80;98855.72;7282477;19;130853;-36
2023/12/20 03:05:21;;;;;;;338.33;12.07;;;;;;;21.94;55.76;98860.31;7279995;19;130955;-37
2023/12/20 03:07:46;;;;;;;324.70;11.73;;;;;;;21.91;56.16;98862.44;7281622;19;131837;-36
2023/12/20 03:10:11;;;;;;;342.40;12.10;;;;;;;21.88;55.69;98868.00;7279807;19;131034;-36
2023/12/20 03:12:37;;;;;;;304.73;10.93;;;;;;;21.87;55.84;98856.69;7281944;19;130183;-38
2023/12/20 03:15:02;;;;;;;327.77;11.70;;;;;;;21.83;55.45;98850.13;7281566;19;131811;-38
2023/12/20 03:17:28;;;;;;;342.48;12.20;;;;;;;21.82;55.62;98858.13;7279173;19;131534;-36
2023/12/20 03:19:53;;;;;;;395.93;14.23;;;;;;;21.80;55.68;98860.91;7280184;19;131800;-36
2023/12/20 03:22:18;;;;;;;290.92;10.13;;;;;;;21.78;55.78;98862.88;7281145;19;130594;-37
2023/12/20 03:24:44;;;;;;;287.95;10.02;;;;;;;21.78;55.98;98855.00;7280725;19;130870;-36
2023/12/20 03:27:09;;;;;;;384.77;13.57;;;;;;;21.77;55.91;98839.47;7280283;19;131339;-37
2023/12/20 03:29:34;;;;;;;332.23;11.70;;;;;;;21.76;56.33;98838.69;7280388;19;130871;-37
2023/12/20 03:32:00;;;;;;;296.83;10.63;;;;;;;21.74;55.75;98832.75;7276546;19;129574;-39
2023/12/20 03:34:26;;;;;;;337.83;11.93;;;;;;;21.72;56.15;98832.09;7280366;19;130887;-36
2023/12/20 03:36:52;;;;;;;390.45;13.80;;;;;;;21.70;56.62;98828.78;7280017;19;132415;-38
2023/12/20 03:39:17;;;;;;;290.17;10.15;;;;;;;21.70;55.97;98828.78;7280319;19;130865;-37
2023/12/20 03:41:42;;;;;;;297.87;10.47;;;;;;;21.67;56.18;98829.13;7278419;19;131578;-39
2023/12/20 03:44:08;;;;;;;532.23;21.63;;;;;;;21.70;55.90;98828.78;7275517;19;132470;-37
2023/12/20 03:46:33;;;;;;;350.03;12.27;;;;;;;21.67;56.17;98831.72;7279732;19;131247;-38
2023/12/20 03:48:58;;;;;;;353.80;12.47;;;;;;;21.68;56.59;98829.94;7279424;19;131818;-38
2023/12/20 03:51:24;;;;;;;317.40;11.35;;;;;;;21.67;56.66;98826.50;7278576;19;130328;-34
2023/12/20 03:53:49;;;;;;;331.67;11.70;;;;;;;21.65;55.79;98830.28;7278822;19;130258;-36
2023/12/20 03:56:14;;;;;;;298.73;10.57;;;;;;;21.50;56.11;98810.91;7280536;19;132823;-36
2023/12/20 03:58:40;;;;;;;381.27;14.23;;;;;;;21.63;56.08;98825.19;7277366;19;131699;-37
2023/12/20 04:01:11;;;;;;;319.90;11.23;;;;;;;21.63;56.60;98833.03;7278906;19;131323;-38
2023/12/20 04:03:37;;;;;;;335.67;12.00;;;;;;;21.62;56.74;98828.78;7278567;19;130504;-37
2023/12/20 04:06:02;;;;;;;364.52;12.90;;;;;;;21.66;56.19;98837.13;7279094;19;131483;-38
2023/12/20 04:08:27;;;;;;;338.05;12.63;;;;;;;21.52;56.66;98816.78;7279147;19;129552;-36
2023/12/20 04:10:53;;;;;;;350.08;12.52;;;;;;;21.64;56.70;98833.84;7277607;19;132602;-37
2023/12/20 04:13:18;;;;;;;353.55;12.63;;;;;;;21.63;56.59;98846.13;7279112;19;131197;-38
2023/12/20 04:15:44;;;;;;;310.80;11.18;;;;;;;21.60;56.11;98838.56;7277739;19;131707;-37
2023/12/20 04:18:09;;;;;;;318.73;11.13;;;;;;;21.60;56.36;98838.56;7276820;19;130529;-39
2023/12/20 04:20:34;;;;;;;313.23;10.95;;;;;;;21.62;56.23;98839.25;7277668;19;131007;-38
2023/12/20 04:22:59;;;;;;;367.27;13.27;;;;;;;21.62;56.16;98831.38;7278621;19;130716;-37
2023/12/20 04:25:25;;;;;;;317.98;11.10;;;;;;;21.47;56.36;98817.28;7280288;19;131969;-37
2023/12/20 04:27:50;;;;;;;397.13;13.95;;;;;;;21.60;56.91;98828.09;7277439;19;130440;-37
2023/12/20 04:30:15;;;;;;;288.65;9.93;;;;;;;21.57;56.06;98833.66;7278381;19;130949;-39
2023/12/20 04:32:41;;;;;;;328.15;11.55;;;;;;;21.58;56.72;98851.00;7278955;19;130098;-36
2023/12/20 04:35:08;;;;;;;385.77;13.93;;;;;;;21.56;56.60;98845.13;7277179;19;131272;-36
2023/12/20 04:37:33;;;;;;;287.35;9.88;;;;;;;21.59;56.78;98839.56;7278109;19;130174;-37
2023/12/20 04:39:59;;;;;;;359.40;13.23;;;;;;;21.54;56.91;98833.97;7276366;19;130880;-36
2023/12/20 04:42:24;;;;;;;353.48;12.63;;;;;;;21.68;56.14;98840.41;7278197;19;130097;-36
2023/12/20 04:44:49;;;;;;;294.92;10.32;;;;;;;21.94;55.35;98836.75;7278032;19;130324;-38
2023/12/20 04:47:15;;;;;;;449.05;17.10;;;;;;;22.28;54.63;98833.22;7276092;19;131022;-38
2023/12/20 04:49:40;;;;;;;328.65;11.48;;;;;;;22.68;53.72;98841.09;7274891;19;130656;-39
2023/12/20 04:52:05;;;;;;;426.33;15.87;;;;;;;23.12;52.17;98840.53;7273888;19;130892;-38
2023/12/20 04:54:31;;;;;;;300.75;10.48;;;;;;;23.60;50.87;98844.03;7277725;19;131579;-37
2023/12/20 04:56:56;;;;;;;353.75;12.50;;;;;;;24.05;50.26;98852.03;7276961;19;130876;-36
2023/12/20 04:59:22;;;;;;;341.90;12.07;;;;;;;24.48;48.82;98840.88;7275457;19;130797;-36
2023/12/20 05:01:47;;;;;;;341.57;12.13;;;;;;;24.87;47.65;98843.38;7275588;19;130668;-36
2023/12/20 05:04:12;;;;;;;306.67;10.80;;;;;;;25.09;46.86;98839.88;7277132;19;131352;-36
2023/12/20 05:06:38;;;;;;;252.97;8.63;;;;;;;25.31;47.13;98833.72;7277532;19;130484;-35
2023/12/20 05:09:03;;;;;;;438.97;15.77;;;;;;;25.53;46.24;98835.47;7275926;19;132295;-36
2023/12/20 05:11:28;;;;;;;393.17;14.23;;;;;;;25.81;45.83;98836.41;7271528;19;129820;-37
2023/12/20 05:13:54;;;;;;;352.87;12.43;;;;;;;25.92;45.16;98846.47;7271185;19;133638;-37
2023/12/20 05:16:19;;;;;;;349.43;12.40;;;;;;;26.05;44.64;98844.00;7271035;19;129812;-36
2023/12/20 05:18:45;;;;;;;384.17;13.77;;;;;;;26.00;45.00;98838.44;7273082;19;133001;-36
2023/12/20 05:21:11;;;;;;;321.60;11.33;;;;;;;25.93;44.95;98845.47;7275791;19;130867;-36
2023/12/20 05:23:36;;;;;;;344.00;12.30;;;;;;;25.80;44.76;98840.03;7275542;19;131020;-36
2023/12/20 05:26:02;;;;;;;329.73;12.13;;;;;;;25.59;45.52;98832.09;7273819;19;130725;-36
2023/12/20 05:28:27;;;;;;;435.33;16.10;;;;;;;25.59;45.70;98855.78;7270574;19;130591;-36
2023/12/20 05:30:54;;;;;;;353.63;12.27;;;;;;;25.55;46.35;98857.97;7268234;19;131121;-36
2023/12/20 05:33:19;;;;;;;338.23;11.73;;;;;;;25.57;45.75;98857.78;7268609;19;131001;-37
2023/12/20 05:35:44;;;;;;;339.30;12.03;;;;;;;25.72;45.83;98848.03;7272278;19;132058;-36
2023/12/20 05:38:10;;;;;;;431.88;16.30;;;;;;;25.73;45.08;98860.22;7272634;19;130615;-36
2023/12/20 05:40:35;;;;;;;256.23;9.27;;;;;;;25.69;45.56;98859.78;7272943;19;130059;-36
2023/12/20 05:43:00;;;;;;;314.10;11.63;;;;;;;25.61;45.91;98857.25;7271641;19;131793;-36
2023/12/20 05:45:25;;;;;;;335.50;12.37;;;;;;;25.50;45.63;98867.41;7274850;19;131666;-38
2023/12/20 05:47:51;;;;;;;337.30;12.47;;;;;;;25.41;45.94;98863.22;7275101;19;130601;-37
2023/12/20 05:50:16;;;;;;;304.53;10.77;;;;;;;25.32;46.32;98866.94;7274836;19;132843;-37
2023/12/20 05:52:41;;;;;;;300.30;10.77;;;;;;;25.24;46.21;98859.09;7275966;19;130649;-37
2023/12/20 05:55:07;;;;;;;397.47;14.60;;;;;;;25.13;46.61;98859.56;7274100;19;131313;-37
2023/12/20 05:57:32;;;;;;;329.07;11.50;;;;;;;25.15;46.73;98873.34;7275361;19;130407;-37
2023/12/20 05:59:58;;;;;;;336.77;12.23;;;;;;;25.16;46.92;98872.34;7274462;19;131342;-36
2023/12/20 06:02:23;;;;;;;309.17;10.97;;;;;;;25.11;46.96;98885.22;7275419;19;131217;-36
2023/12/20 06:04:48;;;;;;;305.23;10.97;;;;;;;25.11;46.95;98883.41;7276258;19;130863;-36
2023/12/20 06:07:15;;;;;;;318.17;11.18;;;;;;;25.10;46.87;98889.69;7275629;19;130043;-38
2023/12/20 06:09:40;;;;;;;323.65;11.63;;;;;;;25.12;46.93;98892.94;7274014;19;132045;-37
2023/12/20 06:12:08;;;;;;;362.80;13.17;;;;;;;24.91;47.18;98870.94;7278497;19;131219;-36
2023/12/20 06:14:34;;;;;;;371.85;13.18;;;;;;;25.08;46.66;98890.84;7283032;19;129987;-36
2023/12/20 06:17:00;;;;;;;282.30;10.27;;;;;;;25.03;47.15;98877.41;7282991;19;129541;-36
2023/12/20 06:19:26;;;;;;;323.50;11.43;;;;;;;25.02;47.20;98886.31;7281613;19;130379;-37
2023/12/20 06:21:51;;;;;;;278.23;9.80;;;;;;;25.04;46.96;98889.59;7278780;19;130773;-36
2023/12/20 06:24:17;;;;;;;390.03;14.37;;;;;;;25.02;46.97;98897.66;7282184;19;130407;-36
2023/12/20 06:26:42;;;;;;;271.93;9.53;;;;;;;25.03;46.85;98895.81;7282539;19;129644;-37
2023/12/20 06:29:08;;;;;;;333.10;12.40;;;;;;;25.04;47.68;98900.09;7280779;19;130336;-38
2023/12/20 06:31:34;;;;;;;351.50;12.37;;;;;;;25.07;46.75;98895.28;7279387;19;129824;-36
2023/12/20 06:33:59;;;;;;;364.00;12.83;;;;;;;25.08;46.84;98901.38;7275644;19;131118;-38
2023/12/20 06:36:28;;;;;;;352.57;12.73;;;;;;;25.11;46.72;98903.63;7276672;19;131431;-37
2023/12/20 06:38:53;;;;;;;350.15;12.13;;;;;;;25.13;46.99;98909.53;7275037;19;130946;-36
2023/12/20 06:41:19;;;;;;;347.47;12.57;;;;;;;25.11;46.86;98916.78;7274472;19;130386;-36
2023/12/20 06:43:44;;;;;;;422.33;15.50;;;;;;;25.14;47.22;98911.19;7276137;19;130229;-36
2023/12/20 06:46:10;;;;;;;317.93;11.27;;;;;;;25.17;46.81;98911.63;7276781;19;130737;-37
2023/12/20 06:48:38;;;;;;;395.03;14.93;;;;;;;25.17;46.95;98929.25;7276901;19;130149;-37
2023/12/20 06:51:04;;;;;;;301.13;10.80;;;;;;;25.20;46.47;98934.16;7279232;19;131256;-37
2023/12/20 06:53:30;;;;;;;400.77;14.57;;;;;;;25.16;46.66;98924.97;7281228;19;131969;-36
2023/12/20 06:55:58;;;;;;;263.47;9.60;;;;;;;25.29;46.53;98931.25;7277620;19;130956;-35
2023/12/20 06:58:24;;;;;;;275.58;9.95;;;;;;;25.42;46.76;98942.00;7278710;19;132417;-38
2023/12/20 07:00:51;;;;;;;323.07;11.80;;;;;;;25.55;46.55;98939.56;7279218;19;131624;-37
2023/12/20 07:03:16;;;;;;;328.95;12.07;;;;;;;25.54;46.70;98943.19;7280824;19;132554;-38
2023/12/20 07:05:42;;;;;;;348.30;13.23;;;;;;;25.56;46.23;98937.75;7279730;19;129689;-38
2023/12/20 07:08:07;;;;;;;332.10;12.13;;;;;;;25.58;46.50;98935.75;7278515;19;132045;-38
2023/12/20 07:10:32;;;;;;;330.60;12.00;;;;;;;25.64;46.53;98932.41;7279293;19;130969;-37
2023/12/20 07:12:58;;;;;;;317.30;11.70;;;;;;;25.70;46.52;98929.06;7280039;19;131218;-36
2023/12/20 07:15:23;;;;;;;314.00;12.53;;;;;;;25.61;46.83;98915.16;7274366;19;131805;-39
2023/12/20 07:17:49;;;;;;;404.87;15.00;;;;;;;25.78;46.68;98936.84;7265519;19;130428;-37
2023/12/20 07:20:14;;;;;;;355.60;13.20;;;;;;;25.86;46.10;98928.84;7268584;19;133330;-38
2023/12/20 07:22:40;;;;;;;312.07;11.57;;;;;;;25.76;46.48;98938.84;7278738;19;130593;-36
2023/12/20 07:25:06;;;;;;;358.97;13.70;;;;;;;26.10;43.28;98928.56;7278213;19;130762;-37
2023/12/20 07:27:31;;;;;;;288.63;10.50;;;;;;;25.62;44.14;98948.38;7279434;19;130903;-37
2023/12/20 07:29:57;;;;;;;399.07;15.20;;;;;;;25.16;43.71;98948.63;7277838;19;131939;-37
2023/12/20 07:32:22;;;;;;;320.20;11.87;;;;;;;24.75;44.02;98950.78;7278076;19;130469;-36
2023/12/20 07:34:47;;;;;;;265.20;10.07;;;;;;;24.59;44.77;98947.41;7279849;19;130253;-37
2023/12/20 07:37:13;;;;;;;425.90;16.33;;;;;;;24.45;45.27;98941.94;7276749;19;132088;-37
2023/12/20 07:39:42;;;;;;;363.15;13.25;;;;;;;24.21;45.93;98934.16;7276518;19;130353;-41
2023/12/20 07:42:08;;;;;;;320.80;12.15;;;;;;;24.19;45.79;98940.59;7274577;19;130928;-38
2023/12/20 07:44:33;;;;;;;288.47;10.60;;;;;;;24.11;45.31;98933.56;7277033;19;131701;-36
2023/12/20 07:46:59;;;;;;;337.60;12.43;;;;;;;24.04;46.54;98943.13;7277952;19;131853;-36
2023/12/20 07:49:24;;;;;;;345.42;12.90;;;;;;;23.97;46.00;98946.56;7278451;19;131579;-36
2023/12/20 07:51:49;;;;;;;325.48;11.93;;;;;;;23.87;44.96;98946.78;7277395;19;130854;-37
2023/12/20 07:54:15;;;;;;;357.27;13.10;;;;;;;24.03;46.46;98930.97;7276493;19;129816;-38
2023/12/20 07:56:41;;;;;;;360.10;13.30;;;;;;;23.97;46.55;98917.69;7278314;19;130121;-35
2023/12/20 07:59:06;;;;;;;316.80;11.97;;;;;;;24.02;45.71;98924.09;7276633;19;131344;-38
2023/12/20 08:01:31;;;;;;;285.93;10.53;;;;;;;23.99;46.36;98928.88;7276821;19;130998;-37
2023/12/20 08:03:57;;;;;;;276.98;10.15;;;;;;;24.11;46.00;98930.13;7277577;19;131736;-36
2023/12/20 08:06:22;;;;;;;349.42;13.10;;;;;;;24.12;45.29;98939.63;7277860;19;131277;-37
2023/12/20 08:08:48;;;;;;;326.27;11.87;;;;;;;23.99;46.12;98942.81;7277677;19;133091;-36
2023/12/20 08:11:13;;;;;;;343.05;12.88;;;;;;;23.97;45.78;98941.31;7277417;19;130825;-35
2023/12/20 08:13:38;;;;;;;323.33;11.63;;;;;;;23.90;45.25;98940.38;7278564;19;130849;-38
2023/12/20 08:16:04;;;;;;;359.50;13.33;;;;;;;23.95;45.44;98941.47;7276437;19;131470;-39
2023/12/20 08:18:29;;;;;;;360.43;13.73;;;;;;;23.85;46.37;98945.31;7275905;19;130731;-37
2023/12/20 08:20:55;;;;;;;313.70;11.40;;;;;;;24.02;45.88;98942.47;7275524;19;129534;-36
2023/12/20 08:23:21;;;;;;;330.83;12.30;;;;;;;23.87;45.01;98952.03;7278207;19;131879;-39
2023/12/20 08:25:46;;;;;;;393.43;14.73;;;;;;;23.80;45.03;98948.44;7277235;19;131441;-34
2023/12/20 08:28:12;;;;;;;328.53;12.13;;;;;;;23.80;44.86;98961.56;7277850;19;130861;-37
2023/12/20 08:30:37;;;;;;;279.20;10.63;;;;;;;23.76;45.17;98949.78;7276909;19;133221;-38
2023/12/20 08:33:03;;;;;;;324.37;12.37;;;;;;;23.70;45.56;98952.25;7275458;19;129458;-36
2023/12/20 08:35:28;;;;;;;347.02;13.00;;;;;;;23.76;46.00;98946.31;7277820;19;133852;-36
2023/12/20 08:37:53;;;;;;;375.77;14.17;;;;;;;23.97;44.45;98947.38;7276490;19;131232;-37
2023/12/20 08:40:20;;;;;;;323.17;12.33;;;;;;;24.14;45.08;98943.75;7276740;19;129576;-34
2023/12/20 08:42:45;;;;;;;337.08;12.30;;;;;;;23.82;44.97;98949.09;7277712;19;130598;-37
2023/12/20 08:45:11;;;;;;;352.27;13.20;;;;;;;23.82;44.80;98941.22;7276921;19;131472;-36
2023/12/20 08:47:36;;;;;;;349.30;12.80;;;;;;;23.90;44.73;98961.38;7276170;19;130432;-37
2023/12/20 08:50:02;;;;;;;326.03;12.13;;;;;;;23.98;42.98;98950.88;7273514;19;130299;-40
2023/12/20 08:52:29;;;;;;;365.67;13.27;;;;;;;23.80;39.96;98961.56;7275188;19;130717;-37
2023/12/20 08:54:54;;;;;;;301.25;11.43;;;;;;;23.95;41.78;98954.63;7276737;19;131029;-37
2023/12/20 08:57:20;;;;;;;266.23;10.03;;;;;;;23.90;41.89;98953.50;7277354;19;130326;-38
2023/12/20 08:59:47;;;;;;;361.33;13.13;;;;;;;23.74;41.11;98959.63;7274140;19;129442;-36
2023/12/20 09:02:13;;;;;;;361.40;13.57;;;;;;;23.73;41.64;98954.53;7274436;19;130633;-37
2023/12/20 09:04:38;;;;;;;286.43;10.77;;;;;;;23.80;41.42;98956.31;7277961;19;132490;-35
2023/12/20 09:07:04;;;;;;;317.45;11.98;;;;;;;23.85;40.94;98950.56;7277404;19;131257;-37
2023/12/20 09:09:31;;;;;;;280.63;10.63;;;;;;;23.81;40.44;98952.72;7275498;19;129875;-38
2023/12/20 09:11:57;;;;;;;384.52;14.45;;;;;;;23.99;39.54;98945.44;7273727;19;129469;-37
2023/12/20 09:14:23;;;;;;;351.63;13.17;;;;;;;23.74;41.45;98946.50;7276928;19;132070;-37
2023/12/20 09:16:50;;;;;;;312.13;11.87;;;;;;;23.85;40.65;98948.75;7276809;19;131117;-38
2023/12/20 09:19:16;;;;;;;335.45;13.00;;;;;;;24.01;39.83;98935.59;7273745;19;131182;-39
2023/12/20 09:21:42;;;;;;;433.53;16.10;;;;;;;23.85;40.93;98943.50;7274503;19;131882;-36
2023/12/20 09:24:08;;;;;;;312.00;11.60;;;;;;;23.93;40.14;98946.09;7275982;19;131249;-37
2023/12/20 09:26:34;;;;;;;291.65;10.68;;;;;;;23.90;40.25;98951.69;7276675;19;131465;-38
2023/12/20 09:28:59;;;;;;;328.63;12.30;;;;;;;23.72;39.66;98940.59;7275514;19;131204;-37
2023/12/20 09:31:25;;;;;;;387.83;14.63;;;;;;;23.72;40.33;98937.97;7274392;19;131768;-37
2023/12/20 09:33:50;;;;;;;312.60;11.73;;;;;;;23.81;40.22;98939.59;7276270;19;131206;-37
2023/12/20 09:36:15;;;;;;;354.10;13.90;;;;;;;23.53;40.83;98932.28;7275735;19;129682;-37
2023/12/20 09:38:42;;;;;;;349.53;14.17;;;;;;;24.37;38.56;98934.09;7275218;19;130534;-35
2023/12/20 09:41:07;;;;;;;346.33;13.20;;;;;;;24.77;38.22;98940.09;7276689;19;132445;-36
2023/12/20 09:43:38;;;;;;;426.02;16.77;;;;;;;24.62;37.53;98920.78;7275164;19;131969;-36
2023/12/20 09:46:07;;;;;;;295.20;11.38;;;;;;;25.12;38.64;98924.50;7279670;19;132096;-38
2023/12/20 09:48:33;;;;;;;385.42;15.13;;;;;;;25.24;39.50;98927.50;7280158;19;130333;-37
2023/12/20 09:50:59;;;;;;;405.63;15.07;;;;;;;25.18;38.62;98922.97;7280021;19;129533;-37
2023/12/20 09:53:29;;;;;;;286.02;11.07;;;;;;;25.26;38.42;98922.91;7282055;19;131196;-38
2023/12/20 09:55:58;;;;;;;308.52;11.40;;;;;;;25.07;37.81;98923.41;7282227;19;131944;-36
2023/12/20 09:58:23;;;;;;;334.08;12.52;;;;;;;25.13;36.73;98914.81;7280246;19;131796;-39
2023/12/20 10:00:49;;;;;;;348.63;13.03;;;;;;;25.27;37.24;98906.13;7280583;19;129812;-37
2023/12/20 10:03:15;;;;;;;339.70;12.67;;;;;;;25.52;37.95;98899.63;7280871;19;130297;-35
2023/12/20 10:05:43;;;;;;;372.35;14.13;;;;;;;25.34;38.36;98909.66;7281989;19;131344;-36
2023/12/20 10:08:09;;;;;;;382.65;14.30;;;;;;;25.06;36.64;98909.44;7279523;19;130691;-38
2023/12/20 10:10:34;;;;;;;337.33;12.57;;;;;;;24.93;37.22;98900.50;7279940;19;131440;-37
2023/12/20 10:13:08;;;;;;;296.75;11.02;;;;;;;25.13;37.49;98910.38;7282595;19;129585;-34
2023/12/20 10:15:34;;;;;;;326.27;11.98;;;;;;;24.79;36.92;98899.47;7277093;19;130923;-39
2023/12/20 10:18:03;;;;;;;352.05;13.30;;;;;;;24.94;37.44;98899.53;7276534;19;129611;-38
2023/12/20 10:20:30;;;;;;;341.05;12.90;;;;;;;24.98;37.36;98892.91;7277263;19;130498;-37
2023/12/20 10:22:56;;;;;;;355.58;13.20;;;;;;;24.80;36.51;98858.22;7282142;19;130592;-37
2023/12/20 10:25:22;;;;;;;314.65;12.05;;;;;;;24.98;37.01;98885.00;7282007;19;131154;-37
2023/12/20 10:27:47;;;;;;;348.63;12.73;;;;;;;25.03;36.77;98882.66;7282289;19;132161;-35
2023/12/20 10:30:16;;;;;;;401.75;14.98;;;;;;;24.80;36.31;98876.63;7278884;19;129989;-37
2023/12/20 10:32:41;;;;;;;350.40;13.07;;;;;;;25.06;35.94;98877.03;7281144;19;131854;-38
2023/12/20 10:35:08;;;;;;;326.43;12.17;;;;;;;24.98;35.99;98877.13;7281581;19;131363;-38
2023/12/20 10:37:37;;;;;;;320.13;12.07;;;;;;;24.59;37.72;98868.56;7280022;19;130895;-38
2023/12/20 10:40:05;;;;;;;327.90;12.13;;;;;;;24.79;39.29;98875.00;7276530;19;129561;-36
2023/12/20 10:42:31;;;;;;;350.17;12.70;;;;;;;25.02;39.20;98860.84;7278717;19;130591;-36
2023/12/20 10:44:59;;;;;;;306.10;11.53;;;;;;;24.98;38.81;98862.19;7280001;19;130945;-37
2023/12/20 10:47:26;;;;;;;338.38;12.48;;;;;;;25.15;39.40;98849.69;7280929;19;131172;-37
2023/12/20 10:49:52;;;;;;;305.33;11.05;;;;;;;25.18;39.24;98844.06;7281814;19;130958;-37
2023/12/20 10:52:17;;;;;;;388.40;15.00;;;;;;;25.40;39.29;98837.94;7275827;19;131689;-38
2023/12/20 10:54:44;;;;;;;285.57;10.70;;;;;;;25.34;39.20;98828.06;7281026;19;131915;-38